Time;durP1;ratioP1;P1;durP2;ratioP2;P2;SDS_P1;SDS_P2;PMS_P1;PMS_P2;Temp;Humidity;BMP_temperature;BMP_pressure;BME280_temperature;BME280_humidity;BME280_pressure;Samples;Min_cycle;Max_cycle;Signal;HPM_P1;HPM_P2
2023/01/30 00:01:29;;;;;;;13.68;6.35;;;;;;;;;;4988936;28;20045;-78
2023/01/30 00:03:55;;;;;;;15.98;5.97;;;-5.00;99.90;;;;;;4988844;28;20034;-78
2023/01/30 00:06:21;;;;;;;14.32;8.68;;;;;;;;;;4988347;28;20030;-78
2023/01/30 00:08:46;;;;;;;15.98;7.68;;;-5.20;99.90;;;;;;4988408;28;20347;-78
2023/01/30 00:11:14;;;;;;;10.52;6.15;;;-5.00;99.90;;;;;;4987748;28;20433;-77
2023/01/30 00:13:41;;;;;;;26.48;11.25;;;-4.70;99.90;;;;;;4988125;28;20054;-78
2023/01/30 00:16:13;;;;;;;20.13;7.72;;;-4.80;99.90;;;;;;4989216;28;20121;-78
2023/01/30 00:18:40;;;;;;;15.52;8.13;;;-4.70;99.90;;;;;;4986747;28;20121;-79
2023/01/30 00:21:11;;;;;;;16.92;6.60;;;-4.70;99.90;;;;;;4987661;28;20116;-82
2023/01/30 00:23:37;;;;;;;16.80;8.25;;;;;;;;;;4988394;28;20102;-77
2023/01/30 00:26:05;;;;;;;18.75;7.53;;;-5.00;99.90;;;;;;4988794;28;20041;-76
2023/01/30 00:28:31;;;;;;;14.38;7.22;;;-4.90;99.90;;;;;;4990343;28;20541;-76
2023/01/30 00:30:57;;;;;;;10.23;5.05;;;;;;;;;;4988905;28;20137;-76
2023/01/30 00:33:24;;;;;;;18.45;7.65;;;-5.80;99.90;;;;;;4988833;28;20022;-76
2023/01/30 00:35:51;;;;;;;18.67;8.80;;;;;;;;;;4988318;28;20490;-77
2023/01/30 00:38:17;;;;;;;17.90;7.28;;;-5.10;99.90;;;;;;4988407;28;20110;-77
2023/01/30 00:40:43;;;;;;;11.63;5.68;;;;;;;;;;4988613;28;20286;-77
2023/01/30 00:48:43;;;;;;;22.08;8.27;;;-4.70;99.90;;;;;;4987584;28;20041;-79
2023/01/30 00:51:08;;;;;;;15.82;8.05;;;-4.60;99.90;;;;;;4986350;28;20030;-78
2023/01/30 00:53:34;;;;;;;14.52;7.13;;;;;;;;;;4988012;28;20049;-78
2023/01/30 00:56:00;;;;;;;20.15;7.57;;;;;;;;;;4987901;28;20088;-78
2023/01/30 00:58:26;;;;;;;12.60;6.28;;;-5.00;99.90;;;;;;4988494;28;20084;-78
2023/01/30 01:00:52;;;;;;;16.70;7.97;;;;;;;;;;4987337;28;20030;-78
2023/01/30 01:03:19;;;;;;;18.17;7.53;;;;;;;;;;4988180;28;20042;-79
2023/01/30 01:05:45;;;;;;;15.48;7.13;;;;;;;;;;4986890;28;20045;-78
2023/01/30 01:08:11;;;;;;;16.85;6.93;;;-5.00;99.90;;;;;;4988225;28;20037;-77
2023/01/30 01:10:37;;;;;;;11.40;5.90;;;;;;;;;;4989072;28;20394;-78
2023/01/30 01:13:03;;;;;;;19.38;6.97;;;-4.70;99.90;;;;;;4990816;28;20050;-79
2023/01/30 01:15:29;;;;;;;21.45;7.97;;;-5.10;99.90;;;;;;4990282;28;20465;-77
2023/01/30 01:17:55;;;;;;;15.80;7.88;;;;;;;;;;4988647;28;20026;-77
2023/01/30 01:20:21;;;;;;;15.10;7.57;;;-5.20;99.90;;;;;;4987976;28;20406;-76
2023/01/30 01:22:52;;;;;;;20.15;8.13;;;-5.30;99.90;;;;;;4989116;28;20026;-76
2023/01/30 01:25:18;;;;;;;12.57;7.78;;;-5.10;99.90;;;;;;4988309;28;20026;-77
2023/01/30 01:27:44;;;;;;;13.85;7.00;;;-5.20;99.90;;;;;;4988340;28;20092;-77
2023/01/30 01:30:11;;;;;;;21.40;8.57;;;-5.00;99.90;;;;;;4986119;28;20034;-77
2023/01/30 01:32:38;;;;;;;17.60;6.57;;;-5.20;99.90;;;;;;4987680;28;20470;-78
2023/01/30 01:35:05;;;;;;;15.23;6.40;;;-5.40;99.90;;;;;;4987847;28;20058;-79
2023/01/30 01:37:31;;;;;;;18.25;8.48;;;;;;;;;;4988781;28;20030;-79
2023/01/30 01:42:44;;;;;;;20.23;8.10;;;-5.20;99.90;;;;;;4987815;28;20275;-77
2023/01/30 01:45:10;;;;;;;17.17;7.95;;;;;;;;;;4987151;28;20117;-79
2023/01/30 01:47:38;;;;;;;20.50;9.18;;;;;;;;;;4986684;28;20101;-78
2023/01/30 01:50:05;;;;;;;14.63;6.50;;;-5.00;99.90;;;;;;4986392;28;20406;-80
2023/01/30 01:52:31;;;;;;;18.98;8.02;;;-4.90;99.90;;;;;;4987328;28;20049;-80
2023/01/30 01:55:01;;;;;;;19.90;8.55;;;-5.30;99.90;;;;;;4987208;28;20474;-78
2023/01/30 01:57:42;;;;;;;14.50;7.13;;;;;;;;;;4987431;28;20128;-79
2023/01/30 02:00:15;;;;;;;13.23;6.95;;;-5.20;99.90;;;;;;4988128;28;20514;-84
2023/01/30 02:02:45;;;;;;;16.02;7.75;;;-5.20;99.90;;;;;;4987778;28;20022;-78
2023/01/30 02:05:13;;;;;;;18.08;7.40;;;-5.20;99.90;;;;;;4986566;28;20049;-78
2023/01/30 02:07:51;;;;;;;21.55;7.68;;;-5.10;99.90;;;;;;4986956;28;20058;-78
2023/01/30 02:10:22;;;;;;;18.10;8.27;;;-5.10;99.90;;;;;;4986754;28;20105;-78
2023/01/30 02:12:49;;;;;;;18.55;7.65;;;-4.90;99.90;;;;;;4985813;28;20053;-81
2023/01/30 02:15:16;;;;;;;25.17;7.95;;;-4.80;99.90;;;;;;4986964;28;20030;-77
2023/01/30 02:17:43;;;;;;;18.55;6.63;;;;;;;;;;4987184;28;20133;-78
2023/01/30 02:20:28;;;;;;;19.05;8.55;;;;;;;;;;4986688;28;20066;-75
2023/01/30 02:23:05;;;;;;;19.60;7.40;;;-4.30;99.90;;;;;;4985129;28;20052;-76
2023/01/30 02:25:40;;;;;;;18.33;7.85;;;-4.00;99.90;;;;;;4985725;28;20037;-77
2023/01/30 02:28:24;;;;;;;24.33;10.95;;;-3.20;99.90;;;;;;4987877;28;20115;-76
2023/01/30 02:30:53;;;;;;;20.52;10.63;;;;;;;;;;4987891;28;20033;-75
2023/01/30 02:33:19;;;;;;;19.08;8.93;;;;;;;;;;4985328;28;20037;-75
2023/01/30 02:36:03;;;;;;;19.20;9.75;;;-2.30;99.90;;;;;;4985907;28;20022;-76
2023/01/30 02:38:59;;;;;;;20.98;9.55;;;-2.30;99.90;;;;;;4984808;28;20061;-75
2023/01/30 02:41:55;;;;;;;20.80;8.68;;;-2.30;99.90;;;;;;4981094;28;20050;-76
2023/01/30 02:44:53;;;;;;;22.23;9.57;;;-2.50;99.90;;;;;;4989721;28;20514;-76
2023/01/30 02:47:35;;;;;;;21.02;8.48;;;-2.40;99.90;;;;;;4982908;28;20050;-76
2023/01/30 02:50:11;;;;;;;15.82;7.43;;;-2.40;99.90;;;;;;4991543;28;20371;-75
2023/01/30 02:52:37;;;;;;;14.65;7.45;;;;;;;;;;4990624;28;20105;-75
2023/01/30 02:55:16;;;;;;;17.05;8.45;;;-2.00;99.90;;;;;;4988766;28;20033;-75
2023/01/30 02:57:42;;;;;;;17.75;6.63;;;;;;;;;;4990486;28;20065;-76
2023/01/30 03:00:09;;;;;;;10.00;5.55;;;-1.50;99.90;;;;;;4990163;28;20027;-80
2023/01/30 03:03:06;;;;;;;15.05;7.25;;;-1.80;99.90;;;;;;4988406;28;20032;-76
2023/01/30 03:05:43;;;;;;;16.63;8.05;;;-1.70;99.90;;;;;;4988746;28;20544;-75
2023/01/30 03:08:22;;;;;;;17.40;7.30;;;-1.90;99.90;;;;;;4972886;28;20030;-75
2023/01/30 03:10:48;;;;;;;15.10;6.57;;;;;;;;;;4988463;28;20026;-75
2023/01/30 03:13:34;;;;;;;17.13;6.15;;;-1.80;99.90;;;;;;4988394;28;20125;-75
2023/01/30 03:16:06;;;;;;;14.82;7.75;;;;;;;;;;4989671;28;20545;-76
2023/01/30 03:18:32;;;;;;;13.00;7.28;;;;;;;;;;4989459;28;20609;-75
2023/01/30 03:21:03;;;;;;;20.92;9.23;;;;;;;;;;4988437;28;20026;-75
2023/01/30 03:23:29;;;;;;;17.05;6.85;;;;;;;;;;4989559;28;20042;-75
2023/01/30 03:25:55;;;;;;;12.60;6.45;;;;;;;;;;4989678;28;20042;-75
2023/01/30 03:28:21;;;;;;;14.75;7.18;;;;;;;;;;4989580;28;20092;-76
2023/01/30 03:30:47;;;;;;;17.55;6.82;;;;;;;;;;4988631;28;20478;-76
2023/01/30 03:33:13;;;;;;;16.55;7.30;;;;;;;;;;4989308;28;20043;-75
2023/01/30 03:35:40;;;;;;;15.68;7.32;;;;;;;;;;4989247;28;20037;-76
2023/01/30 03:38:06;;;;;;;16.10;6.50;;;;;;;;;;4988156;28;20033;-75
2023/01/30 03:40:31;;;;;;;13.30;5.57;;;-1.30;99.90;;;;;;4988986;28;20050;-75
2023/01/30 03:42:57;;;;;;;13.35;5.95;;;;;;;;;;4990180;28;20022;-76
2023/01/30 03:45:23;;;;;;;14.13;6.25;;;;;;;;;;4988171;28;20130;-76
2023/01/30 03:47:49;;;;;;;12.00;6.38;;;;;;;;;;4988383;28;20177;-76
2023/01/30 03:50:15;;;;;;;13.20;5.40;;;;;;;;;;4991348;28;20260;-76
2023/01/30 03:52:41;;;;;;;12.77;5.50;;;;;;;;;;4988628;28;20030;-76
2023/01/30 03:55:08;;;;;;;16.48;5.70;;;;;;;;;;4990142;28;20121;-75
2023/01/30 03:57:34;;;;;;;15.30;6.40;;;;;;;;;;4990361;28;20475;-75
2023/01/30 04:00:00;;;;;;;12.35;5.13;;;;;;;;;;4990630;28;20032;-75
2023/01/30 04:02:26;;;;;;;13.38;6.18;;;;;;;;;;4990125;28;20019;-76
2023/01/30 04:04:52;;;;;;;12.15;5.53;;;;;;;;;;4989589;28;20340;-76
2023/01/30 04:07:18;;;;;;;11.80;6.25;;;;;;;;;;4988836;28;20031;-76
2023/01/30 04:09:44;;;;;;;13.02;6.80;;;;;;;;;;4988667;28;20573;-75
2023/01/30 04:12:10;;;;;;;13.05;5.53;;;;;;;;;;4987699;28;20034;-76
2023/01/30 04:14:36;;;;;;;13.93;5.72;;;;;;;;;;4987405;28;20030;-75
2023/01/30 04:17:02;;;;;;;14.60;6.00;;;;;;;;;;4988780;28;20038;-76
2023/01/30 04:19:29;;;;;;;9.07;4.82;;;;;;;;;;4989105;28;20358;-75
2023/01/30 04:21:55;;;;;;;12.07;5.90;;;;;;;;;;4989259;28;20053;-78
2023/01/30 04:24:21;;;;;;;14.45;5.70;;;;;;;;;;4988691;28;20034;-75
2023/01/30 04:26:47;;;;;;;7.63;5.57;;;;;;;;;;4990130;28;20088;-76
2023/01/30 04:29:12;;;;;;;13.68;7.40;;;;;;;;;;4990900;28;20026;-76
2023/01/30 04:31:38;;;;;;;15.00;6.35;;;;;;;;;;4989701;28;20100;-75
2023/01/30 04:34:04;;;;;;;15.18;6.40;;;;;;;;;;4989560;28;20034;-75
2023/01/30 04:36:30;;;;;;;12.40;5.82;;;-2.00;99.90;;;;;;4989634;28;20082;-76
2023/01/30 04:38:57;;;;;;;12.60;6.70;;;-2.20;99.90;;;;;;4991421;28;20269;-76
2023/01/30 04:41:23;;;;;;;14.38;6.32;;;-2.30;99.90;;;;;;4990918;28;20128;-75
2023/01/30 04:43:49;;;;;;;11.77;6.03;;;;;;;;;;4989721;28;20073;-76
2023/01/30 04:46:17;;;;;;;14.35;6.22;;;-2.50;99.90;;;;;;4987581;28;20058;-75
2023/01/30 04:48:43;;;;;;;13.93;7.50;;;-2.30;99.90;;;;;;4987377;28;20033;-75
2023/01/30 04:51:08;;;;;;;15.48;7.70;;;-2.40;99.90;;;;;;4990201;28;20026;-77
2023/01/30 04:53:35;;;;;;;13.48;5.78;;;;;;;;;;4988593;28;20065;-75
2023/01/30 04:56:00;;;;;;;9.55;4.90;;;-2.70;99.90;;;;;;4989301;28;20026;-75
2023/01/30 04:58:26;;;;;;;13.80;6.43;;;-2.70;99.90;;;;;;4986928;28;20030;-75
2023/01/30 05:00:52;;;;;;;14.82;5.65;;;-2.80;99.90;;;;;;4988343;28;20113;-76
2023/01/30 05:03:17;;;;;;;11.73;6.30;;;-2.90;99.90;;;;;;4988257;28;20333;-76
2023/01/30 05:05:46;;;;;;;14.20;6.15;;;-2.80;99.90;;;;;;4988468;28;20462;-75
2023/01/30 05:08:11;;;;;;;14.55;5.50;;;-3.00;99.90;;;;;;4988959;28;20399;-76
2023/01/30 05:10:37;;;;;;;18.63;6.60;;;-2.80;99.90;;;;;;4989401;28;20075;-76
2023/01/30 05:13:04;;;;;;;16.58;7.15;;;-2.70;99.90;;;;;;4989355;28;20447;-75
2023/01/30 05:15:30;;;;;;;10.98;6.28;;;;;;;;;;4988901;28;20028;-76
2023/01/30 05:17:56;;;;;;;10.30;4.65;;;-3.20;99.90;;;;;;4988552;28;20026;-77
2023/01/30 05:20:21;;;;;;;17.17;6.57;;;-3.40;99.90;;;;;;4988685;28;20037;-75
2023/01/30 05:22:47;;;;;;;13.02;7.57;;;;;;;;;;4988275;28;20505;-76
2023/01/30 05:25:13;;;;;;;18.60;8.13;;;;;;;;;;4988469;28;20561;-76
2023/01/30 05:27:40;;;;;;;17.42;7.05;;;;;;;;;;4988868;28;20066;-78
2023/01/30 05:30:06;;;;;;;13.85;7.57;;;-3.70;99.90;;;;;;4988735;28;20030;-76
2023/01/30 05:32:31;;;;;;;16.63;7.53;;;-3.60;99.90;;;;;;4987114;28;20054;-76
2023/01/30 05:34:57;;;;;;;13.02;5.65;;;;;;;;;;4988163;28;20517;-75
2023/01/30 05:37:23;;;;;;;15.80;6.78;;;-3.50;99.90;;;;;;4988705;28;20821;-75
2023/01/30 05:39:49;;;;;;;16.25;6.88;;;-2.60;99.90;;;;;;4988316;28;20030;-76
2023/01/30 05:42:18;;;;;;;15.05;6.60;;;-3.90;99.90;;;;;;4987267;28;20410;-76
2023/01/30 05:44:46;;;;;;;13.95;7.05;;;-3.90;99.90;;;;;;4988756;28;20090;-76
2023/01/30 05:47:12;;;;;;;14.18;5.45;;;;;;;;;;4985780;28;20030;-75
2023/01/30 05:49:38;;;;;;;15.88;6.30;;;;;;;;;;4986135;28;20034;-76
2023/01/30 05:52:04;;;;;;;13.82;6.95;;;;;;;;;;4988587;28;20017;-76
2023/01/30 05:54:30;;;;;;;16.30;7.45;;;-4.30;99.90;;;;;;4988142;28;20034;-76
2023/01/30 05:56:55;;;;;;;14.05;6.43;;;-4.10;99.90;;;;;;4987833;28;20029;-76
2023/01/30 05:59:21;;;;;;;16.02;6.53;;;;;;;;;;4987926;28;20378;-76
2023/01/30 06:01:47;;;;;;;20.73;6.78;;;-4.70;99.90;;;;;;4985345;28;20158;-76
2023/01/30 06:04:13;;;;;;;11.10;5.30;;;-4.10;99.90;;;;;;4987766;28;20039;-76
2023/01/30 06:06:39;;;;;;;16.83;7.00;;;-4.20;99.90;;;;;;4986821;28;20034;-76
2023/01/30 06:09:04;;;;;;;15.30;6.15;;;-4.30;99.90;;;;;;4987292;28;20343;-76
2023/01/30 06:11:30;;;;;;;11.35;5.40;;;;;;;;;;4987103;28;20462;-76
2023/01/30 06:13:56;;;;;;;14.48;6.82;;;-4.40;99.90;;;;;;4987606;28;20034;-76
2023/01/30 06:16:22;;;;;;;21.48;7.25;;;-4.10;99.90;;;;;;4988605;28;20030;-76
2023/01/30 06:18:47;;;;;;;12.80;5.90;;;-3.70;99.90;;;;;;4989271;28;20034;-78
2023/01/30 06:21:14;;;;;;;15.50;6.88;;;-3.70;99.90;;;;;;4988951;28;20466;-78
2023/01/30 06:23:40;;;;;;;14.05;6.20;;;;;;;;;;4989381;28;20113;-77
2023/01/30 06:26:06;;;;;;;17.77;9.00;;;-3.90;99.90;;;;;;4988577;28;20437;-79
2023/01/30 06:28:32;;;;;;;14.43;6.47;;;-3.70;99.90;;;;;;4989729;28;20027;-82
2023/01/30 06:30:57;;;;;;;16.13;8.15;;;-3.20;99.90;;;;;;4990885;28;20056;-91
2023/01/30 06:33:23;;;;;;;12.68;6.80;;;-3.10;99.90;;;;;;4989927;28;20027;-80
2023/01/30 06:35:50;;;;;;;15.35;7.32;;;;;;;;;;4988423;28;20022;-77
2023/01/30 06:38:16;;;;;;;15.43;6.75;;;-3.00;99.90;;;;;;4988148;28;20393;-78
2023/01/30 06:40:44;;;;;;;17.30;8.10;;;-3.00;99.90;;;;;;4988362;28;20652;-77
2023/01/30 06:43:10;;;;;;;17.00;7.28;;;-3.10;99.90;;;;;;4986745;28;20104;-78
2023/01/30 06:45:36;;;;;;;12.43;6.72;;;-2.80;99.90;;;;;;4988769;28;20490;-79
2023/01/30 06:48:01;;;;;;;12.15;5.65;;;-3.30;99.90;;;;;;4989440;28;20030;-77
2023/01/30 06:50:28;;;;;;;19.90;7.32;;;;;;;;;;4989846;28;20402;-77
2023/01/30 06:52:55;;;;;;;13.18;6.80;;;-3.00;99.90;;;;;;4989344;28;20514;-77
2023/01/30 06:55:24;;;;;;;12.18;6.38;;;-3.00;99.90;;;;;;4990038;28;20146;-77
2023/01/30 06:57:59;;;;;;;21.30;6.05;;;-3.00;99.90;;;;;;4989533;28;20790;-77
2023/01/30 07:00:25;;;;;;;13.95;7.43;;;;;;;;;;4987924;28;20554;-76
2023/01/30 07:02:51;;;;;;;12.90;6.32;;;-2.90;99.90;;;;;;4987032;28;20058;-77
2023/01/30 07:05:16;;;;;;;14.98;7.50;;;-3.00;99.90;;;;;;4987221;28;20490;-77
2023/01/30 07:07:42;;;;;;;17.88;6.82;;;;;;;;;;4986662;28;20031;-79
2023/01/30 07:10:10;;;;;;;14.95;6.30;;;-3.50;99.90;;;;;;4986723;28;20027;-78
2023/01/30 07:12:36;;;;;;;18.02;7.70;;;-2.80;99.90;;;;;;4986878;28;20027;-84
2023/01/30 07:15:02;;;;;;;16.05;7.68;;;-2.70;99.90;;;;;;4988687;28;20029;-84
2023/01/30 07:17:28;;;;;;;19.23;7.53;;;;;;;;;;4986933;28;20031;-89
2023/01/30 07:19:54;;;;;;;16.58;7.45;;;-2.50;99.90;;;;;;4987518;28;20060;-79
2023/01/30 07:22:20;;;;;;;21.35;7.70;;;;;;;;;;4985548;28;20038;-82
2023/01/30 07:24:46;;;;;;;17.83;6.47;;;;;;;;;;4985665;28;20042;-89
2023/01/30 07:27:12;;;;;;;14.60;6.90;;;;;;;;;;4985133;28;20108;-79
2023/01/30 07:29:39;;;;;;;17.75;9.43;;;;;;;;;;4989731;28;20435;-78
2023/01/30 07:32:15;;;;;;;15.45;7.00;;;;;;;;;;4991566;28;20026;-77
2023/01/30 07:34:41;;;;;;;17.67;7.20;;;;;;;;;;4989158;28;20121;-78
2023/01/30 07:37:07;;;;;;;18.60;8.50;;;;;;;;;;4989132;28;20113;-79
2023/01/30 07:39:34;;;;;;;19.17;7.05;;;-1.90;99.90;;;;;;4989687;28;20153;-80
2023/01/30 07:42:00;;;;;;;13.95;6.20;;;;;;;;;;4988562;28;20054;-79
2023/01/30 07:44:26;;;;;;;16.52;8.32;;;;;;;;;;4988327;28;20092;-78
2023/01/30 07:46:52;;;;;;;12.32;5.15;;;;;;;;;;4988709;28;20490;-78
2023/01/30 07:49:19;;;;;;;12.75;6.35;;;;;;;;;;4989711;28;20045;-83
2023/01/30 07:51:44;;;;;;;11.68;5.70;;;-2.00;99.90;;;;;;4988660;28;20610;-78
2023/01/30 07:54:10;;;;;;;17.75;10.65;;;;;;;;;;4989412;28;20063;-79
2023/01/30 07:56:36;;;;;;;14.82;6.07;;;;;;;;;;4988761;28;20049;-77
2023/01/30 07:59:04;;;;;;;10.13;5.80;;;;;;;;;;4989041;28;20561;-79
2023/01/30 08:01:30;;;;;;;15.93;6.10;;;;;;;;;;4990531;28;20049;-80
2023/01/30 08:03:56;;;;;;;18.75;8.68;;;-1.50;99.90;;;;;;4993875;28;20030;-86
2023/01/30 08:06:21;;;;;;;12.43;6.20;;;-0.50;99.90;;;;;;4996137;28;20187;-79
2023/01/30 08:08:48;;;;;;;13.32;6.53;;;-0.90;99.90;;;;;;4993838;28;20042;-78
2023/01/30 08:11:14;;;;;;;10.93;6.18;;;-1.00;99.90;;;;;;4989431;28;20037;-79
2023/01/30 08:13:39;;;;;;;8.68;4.60;;;-0.70;99.90;;;;;;4992030;28;20073;-77
2023/01/30 08:16:06;;;;;;;11.90;5.95;;;-0.60;99.90;;;;;;4994862;28;20038;-77
2023/01/30 08:18:33;;;;;;;11.35;5.68;;;-0.20;99.90;;;;;;4993503;28;20093;-80
2023/01/30 08:21:00;;;;;;;15.73;6.88;;;-0.40;99.90;;;;;;4995894;28;20054;-78
2023/01/30 08:23:26;;;;;;;12.15;6.45;;;-0.30;99.90;;;;;;4992312;28;20029;-77
2023/01/30 08:25:56;;;;;;;11.10;5.55;;;-0.60;99.90;;;;;;4992159;28;20030;-78
2023/01/30 08:28:22;;;;;;;13.73;5.32;;;-0.80;99.90;;;;;;4991766;28;20360;-77
2023/01/30 08:30:48;;;;;;;8.80;4.90;;;-1.10;99.90;;;;;;4993008;28;20388;-80
2023/01/30 08:33:14;;;;;;;9.75;4.60;;;-1.20;99.90;;;;;;4990407;28;20030;-78
2023/01/30 08:35:40;;;;;;;10.57;5.20;;;;;;;;;;4993388;28;20041;-87
2023/01/30 08:38:09;;;;;;;9.85;4.18;;;;;;;;;;4994313;28;20018;-80
2023/01/30 08:40:35;;;;;;;11.00;5.68;;;;;;;;;;4988367;28;20085;-79
2023/01/30 08:43:01;;;;;;;9.43;4.88;;;-1.00;99.90;;;;;;4991870;28;20026;-77
2023/01/30 08:45:28;;;;;;;13.20;4.95;;;;;;;;;;4991109;28;20494;-78
2023/01/30 08:47:58;;;;;;;11.60;5.68;;;-0.80;99.90;;;;;;4988676;28;20401;-85
2023/01/30 08:50:24;;;;;;;14.02;4.43;;;;;;;;;;4997768;28;20478;-81
2023/01/30 08:52:50;;;;;;;10.90;4.85;;;;;;;;;;5001478;28;20029;-79
2023/01/30 08:55:17;;;;;;;8.68;4.80;;;;;;;;;;5000076;28;20045;-77
2023/01/30 08:57:42;;;;;;;6.95;3.55;;;-0.20;99.90;;;;;;4998615;28;20027;-74
2023/01/30 09:00:09;;;;;;;10.57;5.18;;;0.10;99.90;;;;;;4988288;28;20086;-75
2023/01/30 09:02:35;;;;;;;9.52;4.40;;;0.10;99.90;;;;;;4989055;28;20084;-74
2023/01/30 09:05:00;;;;;;;5.75;3.17;;;1.70;99.90;;;;;;4989828;28;20487;-74
2023/01/30 09:07:27;;;;;;;8.82;3.25;;;0.60;99.90;;;;;;4988634;28;20207;-74
2023/01/30 09:09:54;;;;;;;9.40;4.85;;;;;;;;;;4989754;28;20031;-78
2023/01/30 09:12:20;;;;;;;8.05;4.00;;;;;;;;;;4991222;28;20025;-87
2023/01/30 09:14:45;;;;;;;9.63;5.13;;;1.00;99.90;;;;;;4991804;28;20046;-85
2023/01/30 09:17:13;;;;;;;9.98;5.15;;;;;;;;;;4996982;28;20034;-81
2023/01/30 09:19:38;;;;;;;11.88;4.43;;;1.10;99.90;;;;;;5001351;28;20022;-81
2023/01/30 09:22:06;;;;;;;9.23;4.47;;;1.10;99.90;;;;;;5013537;28;20018;-84
2023/01/30 09:24:32;;;;;;;12.10;3.95;;;1.30;99.90;;;;;;4991385;28;20551;-78
2023/01/30 09:26:58;;;;;;;8.95;4.85;;;1.20;99.90;;;;;;4989270;28;20034;-79
2023/01/30 09:29:27;;;;;;;8.57;3.72;;;1.50;99.90;;;;;;4987507;28;20441;-81
2023/01/30 09:31:58;;;;;;;11.63;5.20;;;1.80;99.90;;;;;;4989152;28;20041;-79
2023/01/30 09:34:27;;;;;;;9.00;4.78;;;1.80;99.90;;;;;;4987224;28;20084;-77
2023/01/30 09:36:59;;;;;;;10.77;4.88;;;1.40;99.90;;;;;;4987989;28;20537;-77
2023/01/30 09:39:25;;;;;;;9.15;5.03;;;;;;;;;;4986807;28;20499;-77
2023/01/30 09:42:14;;;;;;;10.00;4.22;;;1.20;99.90;;;;;;4986996;28;20507;-78
2023/01/30 09:44:40;;;;;;;8.63;4.22;;;;;;;;;;4988011;28;20034;-76
2023/01/30 09:47:39;;;;;;;7.50;4.28;;;1.10;99.90;;;;;;4987991;28;20030;-76
2023/01/30 09:50:22;;;;;;;8.57;4.63;;;1.20;99.90;;;;;;4987755;28;20080;-77
2023/01/30 09:52:57;;;;;;;12.20;5.03;;;0.90;99.90;;;;;;4988523;28;20194;-78
2023/01/30 09:55:28;;;;;;;9.82;5.47;;;0.80;99.90;;;;;;4988446;28;20030;-77
2023/01/30 09:57:54;;;;;;;8.93;4.80;;;;;;;;;;4990152;28;20374;-79
2023/01/30 10:00:34;;;;;;;10.70;4.30;;;0.60;99.90;;;;;;4989536;28;20278;-78
2023/01/30 10:03:00;;;;;;;10.70;5.32;;;;;;;;;;4967136;28;20026;-77
2023/01/30 10:05:35;;;;;;;13.43;4.60;;;-0.10;99.90;;;;;;4968313;28;20038;-77
2023/01/30 10:08:12;;;;;;;10.90;5.05;;;0.70;99.90;;;;;;4967350;28;20110;-76
2023/01/30 10:10:48;;;;;;;8.55;4.38;;;0.80;99.90;;;;;;4968427;28;20026;-77
2023/01/30 10:13:41;;;;;;;10.73;5.18;;;0.70;99.90;;;;;;4968215;28;20027;-77
2023/01/30 10:16:36;;;;;;;13.55;5.65;;;0.80;99.90;;;;;;4967710;28;20038;-76
2023/01/30 10:19:35;;;;;;;12.85;5.55;;;2.00;99.90;;;;;;4967571;28;20026;-78
2023/01/30 10:22:15;;;;;;;8.38;3.90;;;0.90;99.90;;;;;;4968793;28;20031;-82
2023/01/30 10:24:52;;;;;;;10.98;5.07;;;1.10;99.90;;;;;;4969209;28;20231;-79
2023/01/30 10:27:19;;;;;;;10.02;5.18;;;;;;;;;;4967350;28;20149;-76
2023/01/30 10:29:55;;;;;;;6.07;3.90;;;1.20;99.90;;;;;;4968438;28;20034;-78
2023/01/30 10:32:40;;;;;;;9.75;5.13;;;1.50;99.90;;;;;;4968314;28;20030;-80
2023/01/30 10:35:15;;;;;;;8.07;4.57;;;1.80;99.90;;;;;;4967677;28;20023;-76
2023/01/30 10:37:53;;;;;;;10.38;4.55;;;2.20;99.90;;;;;;4970802;28;20078;-76
2023/01/30 10:40:25;;;;;;;8.00;5.00;;;;;;;;;;4966626;28;20395;-78
2023/01/30 10:43:08;;;;;;;6.15;3.17;;;2.60;99.90;;;;;;4966377;28;20199;-78
2023/01/30 10:46:13;;;;;;;8.70;4.40;;;2.60;99.90;;;;;;4966606;28;20039;-77
2023/01/30 10:48:57;;;;;;;6.15;3.65;;;4.00;99.90;;;;;;4967963;28;20035;-79
2023/01/30 10:51:52;;;;;;;6.38;3.13;;;2.30;99.90;;;;;;4968603;28;20486;-77
2023/01/30 10:54:32;;;;;;;11.95;5.15;;;2.50;99.90;;;;;;4932389;28;20035;-78
2023/01/30 10:57:21;;;;;;;6.00;3.95;;;2.70;99.90;;;;;;4972226;28;20509;-79
2023/01/30 11:00:12;;;;;;;6.53;4.13;;;2.80;99.90;;;;;;4968395;28;20047;-77
2023/01/30 11:02:56;;;;;;;8.02;5.05;;;3.40;99.90;;;;;;4965459;28;20081;-76
2023/01/30 11:05:25;;;;;;;6.43;2.88;;;3.30;99.90;;;;;;4986271;28;20038;-76
2023/01/30 11:07:51;;;;;;;6.82;4.05;;;3.30;99.90;;;;;;4989129;28;20033;-76
2023/01/30 11:10:23;;;;;;;4.70;2.95;;;3.10;99.90;;;;;;4989118;28;20343;-77
2023/01/30 11:12:55;;;;;;;9.55;3.70;;;3.20;99.90;;;;;;4989632;28;20386;-78
2023/01/30 11:15:24;;;;;;;8.55;4.13;;;;;;;;;;4988151;28;20276;-77
2023/01/30 11:18:02;;;;;;;6.28;3.75;;;3.10;99.90;;;;;;4989830;28;20049;-78
2023/01/30 11:20:28;;;;;;;7.57;3.58;;;2.90;99.90;;;;;;4991368;28;20034;-78
2023/01/30 11:23:05;;;;;;;6.35;4.35;;;3.00;99.90;;;;;;4990660;28;20426;-78
2023/01/30 11:25:31;;;;;;;5.50;3.67;;;3.20;99.90;;;;;;4990358;28;20041;-79
2023/01/30 11:28:02;;;;;;;6.88;3.55;;;3.20;99.90;;;;;;4991151;28;20102;-78
2023/01/30 11:30:35;;;;;;;5.05;2.90;;;4.20;99.90;;;;;;4991402;28;20045;-76
2023/01/30 11:33:16;;;;;;;5.32;3.50;;;4.20;99.90;;;;;;4990120;28;20026;-77
2023/01/30 11:36:22;;;;;;;3.47;2.30;;;3.30;99.90;;;;;;4989012;28;20409;-77
2023/01/30 11:39:18;;;;;;;6.85;3.08;;;;;;;;;;4987139;28;20177;-77
2023/01/30 11:41:54;;;;;;;7.30;2.92;;;3.40;99.90;;;;;;4990016;28;20302;-76
2023/01/30 11:44:26;;;;;;;11.23;3.15;;;3.60;99.90;;;;;;4990514;28;20030;-77
2023/01/30 11:46:52;;;;;;;5.32;2.65;;;;;;;;;;4990452;28;20081;-78
2023/01/30 11:49:21;;;;;;;3.08;2.20;;;3.50;99.90;;;;;;4990320;28;20026;-77
2023/01/30 11:51:51;;;;;;;2.45;1.92;;;3.50;99.90;;;;;;4988913;28;20110;-76
2023/01/30 11:54:24;;;;;;;4.60;2.67;;;3.70;99.90;;;;;;4989204;28;20498;-77
2023/01/30 11:56:55;;;;;;;4.50;2.22;;;3.70;99.90;;;;;;4990968;28;20015;-78
2023/01/30 11:59:33;;;;;;;3.25;2.22;;;4.10;99.90;;;;;;4992188;28;20031;-79
2023/01/30 12:02:17;;;;;;;4.50;2.17;;;4.40;99.90;;;;;;4989718;28;20026;-78
2023/01/30 12:04:45;;;;;;;3.75;2.47;;;4.30;99.90;;;;;;4992700;28;20478;-77
2023/01/30 12:07:22;;;;;;;7.00;2.80;;;;;;;;;;4990736;28;20098;-78
2023/01/30 12:09:49;;;;;;;3.95;2.05;;;;;;;;;;4991565;28;20022;-79
2023/01/30 12:12:46;;;;;;;3.65;1.95;;;5.10;99.90;;;;;;4991193;28;20376;-78
2023/01/30 12:15:30;;;;;;;2.80;1.80;;;5.40;99.90;;;;;;4989922;28;20034;-77
2023/01/30 12:18:02;;;;;;;2.25;1.23;;;5.80;99.90;;;;;;4991783;28;20630;-76
2023/01/30 12:20:45;;;;;;;2.75;1.85;;;6.00;99.90;;;;;;4989589;28;20026;-77
2023/01/30 12:23:14;;;;;;;1.70;0.80;;;5.90;99.90;;;;;;4989760;28;20019;-77
2023/01/30 12:26:01;;;;;;;1.42;1.20;;;6.00;99.90;;;;;;4988333;28;20107;-77
2023/01/30 12:28:57;;;;;;;1.95;1.05;;;6.00;99.90;;;;;;4991658;28;20089;-76
2023/01/30 12:31:32;;;;;;;1.08;0.93;;;6.10;99.90;;;;;;4990170;28;20433;-76
2023/01/30 12:33:58;;;;;;;4.60;1.63;;;;;;;;;;4989880;28;20029;-76
2023/01/30 12:36:24;;;;;;;1.67;1.27;;;;;;;;;;4989406;28;20034;-77
2023/01/30 12:39:02;;;;;;;3.83;1.88;;;;;;;;;;4989628;28;20064;-78
2023/01/30 12:41:42;;;;;;;3.20;1.25;;;5.40;99.90;;;;;;4987866;28;20065;-78
2023/01/30 12:44:37;;;;;;;2.90;2.35;;;5.70;99.90;;;;;;4990933;28;20096;-76
2023/01/30 12:47:13;;;;;;;3.70;1.75;;;5.60;99.90;;;;;;4967057;28;20052;-76
2023/01/30 12:50:00;;;;;;;2.50;2.08;;;5.90;99.90;;;;;;4991240;28;20163;-79
2023/01/30 12:52:39;;;;;;;1.95;1.55;;;5.40;99.90;;;;;;4990145;28;20077;-77
2023/01/30 12:55:14;;;;;;;3.75;2.42;;;5.60;99.90;;;;;;4991420;28;20019;-76
2023/01/30 12:57:57;;;;;;;1.58;1.48;;;5.80;99.90;;;;;;4990527;28;20415;-76
2023/01/30 13:01:00;;;;;;;2.88;1.73;;;5.80;99.90;;;;;;4988011;28;20026;-76
2023/01/30 13:03:44;;;;;;;2.90;1.73;;;6.20;99.90;;;;;;4968575;28;20447;-77
2023/01/30 13:06:48;;;;;;;2.90;2.17;;;6.00;99.90;;;;;;4969627;28;20033;-77
2023/01/30 13:09:32;;;;;;;2.60;2.15;;;5.90;99.90;;;;;;4927922;29;20030;-76
2023/01/30 13:12:04;;;;;;;2.80;2.03;;;;;;;;;;4963578;28;20487;-83
2023/01/30 13:14:47;;;;;;;2.72;1.35;;;5.40;99.90;;;;;;4991186;28;20014;-75
2023/01/30 13:17:23;;;;;;;5.28;1.70;;;5.50;99.90;;;;;;4985455;28;20050;-77
2023/01/30 13:20:12;;;;;;;2.95;1.42;;;5.60;99.90;;;;;;4969735;28;20035;-79
2023/01/30 13:22:41;;;;;;;;;;;5.70;99.90;;;;;;4972398;28;20035;-78
2023/01/30 13:25:21;;;;;;;3.75;2.15;;;5.60;99.90;;;;;;4973761;28;20528;-77
2023/01/30 13:28:01;;;;;;;1.90;1.65;;;5.50;99.90;;;;;;4983749;28;20429;-78
2023/01/30 13:30:28;;;;;;;;;;;5.90;99.90;;;;;;4989273;28;20061;-78
2023/01/30 13:33:02;;;;;;;7.05;2.47;;;5.40;99.90;;;;;;4988985;28;19910;-79
2023/01/30 13:35:27;;;;;;;15.43;2.53;;;5.60;99.90;;;;;;4989795;28;20080;-78
2023/01/30 13:37:55;;;;;;;4.43;2.22;;;5.30;99.90;;;;;;4987060;28;20034;-78
2023/01/30 13:40:27;;;;;;;4.95;2.47;;;5.30;99.90;;;;;;4989662;28;20056;-78
2023/01/30 13:43:02;;;;;;;4.95;2.67;;;5.40;99.90;;;;;;4989429;28;20529;-78
2023/01/30 13:45:33;;;;;;;2.78;2.05;;;;;;;;;;4996038;28;20097;-76
2023/01/30 13:48:22;;;;;;;2.50;1.80;;;5.40;99.90;;;;;;5017246;28;20013;-78